Time;durP1;ratioP1;P1;durP2;ratioP2;P2;SDS_P1;SDS_P2;PMS_P1;PMS_P2;Temp;Humidity;BMP_temperature;BMP_pressure;BME280_temperature;BME280_humidity;BME280_pressure;Samples;Min_cycle;Max_cycle;Signal;HPM_P1;HPM_P2
2022/10/09 00:01:16;;;;;;;3.05;1.20;;;;;;;;;;4928215;28;20039;-80
2022/10/09 00:03:44;;;;;;;3.47;1.08;;;;;;;;;;4950440;28;20411;-81
2022/10/09 00:06:12;;;;;;;3.95;1.42;;;;;;;;;;4933528;28;20035;-82
2022/10/09 00:08:42;;;;;;;3.78;1.20;;;;;;;;;;4927403;28;20058;-80
2022/10/09 00:11:10;;;;;;;4.60;1.45;;;;;;;;;;4935786;28;20027;-80
2022/10/09 00:13:36;;;;;;;2.50;1.10;;;;;;;;;;4926916;28;20493;-81
2022/10/09 00:16:04;;;;;;;5.55;1.60;;;;;;;;;;4927946;28;20029;-81
2022/10/09 00:18:29;;;;;;;5.18;1.48;;;;;;;;;;4946219;28;20043;-82
2022/10/09 00:20:55;;;;;;;4.15;1.17;;;;;;;;;;4926898;28;20042;-81
2022/10/09 00:23:20;;;;;;;5.45;1.30;;;;;;;;;;4935820;28;20045;-80
2022/10/09 00:25:54;;;;;;;4.07;1.52;;;;;;;;;;4925670;28;20463;-80
2022/10/09 00:28:21;;;;;;;3.15;1.30;;;;;;;;;;4934384;28;20039;-80
2022/10/09 00:30:46;;;;;;;3.35;1.02;;;;;;;;;;4931205;28;20086;-83
2022/10/09 00:33:11;;;;;;;2.42;1.02;;;;;;;;;;4927006;28;20043;-81
2022/10/09 00:35:38;;;;;;;4.18;1.40;;;;;;;;;;4925581;28;20510;-82
2022/10/09 00:38:03;;;;;;;5.13;1.30;;;;;;;;;;4942959;28;20042;-80
2022/10/09 00:40:28;;;;;;;2.88;1.10;;;;;;;;;;4930017;28;20105;-81
2022/10/09 00:42:56;;;;;;;3.65;1.25;;;;;;;;;;4934611;28;20045;-81
2022/10/09 00:45:21;;;;;;;4.10;1.58;;;;;;;;;;4925755;28;20490;-81
2022/10/09 00:47:52;;;;;;;2.97;1.10;;;;;;;;;;4943375;28;20034;-81
2022/10/09 00:50:24;;;;;;;3.53;1.30;;;;;;;;;;4934381;28;20035;-80
2022/10/09 00:52:54;;;;;;;5.15;1.30;;;;;;;;;;4945958;28;20035;-80
2022/10/09 00:55:21;;;;;;;2.88;1.48;;;;;;;;;;4937497;28;20036;-80
2022/10/09 00:57:46;;;;;;;2.40;1.10;;;;;;;;;;4939625;28;20053;-81
2022/10/09 01:00:13;;;;;;;3.55;1.25;;;;;;;;;;4930400;28;20047;-81
2022/10/09 01:02:41;;;;;;;3.72;1.50;;;;;;;;;;4926964;28;20372;-81
2022/10/09 01:05:08;;;;;;;4.40;1.15;;;;;;;;;;4941116;28;20047;-81
2022/10/09 01:07:43;;;;;;;4.32;1.20;;;;;;;;;;4930850;28;20037;-80
2022/10/09 01:10:22;;;;;;;4.53;1.13;;;;;;;;;;4941067;28;20406;-80
2022/10/09 01:13:04;;;;;;;4.18;1.30;;;;;;;;;;4933093;28;20043;-81
2022/10/09 01:15:34;;;;;;;3.97;1.20;;;;;;;;;;4941198;28;20039;-81
2022/10/09 01:18:06;;;;;;;4.00;1.00;;;;;;;;;;4933673;28;20109;-81
2022/10/09 01:20:50;;;;;;;3.38;1.20;;;;;;;;;;4940344;28;20397;-81
2022/10/09 01:23:34;;;;;;;4.55;1.20;;;;;;;;;;4924926;28;25582;-81
2022/10/09 01:26:21;;;;;;;4.38;1.20;;;;;;;;;;4942746;28;20162;-80
2022/10/09 01:28:51;;;;;;;3.90;1.20;;;;;;;;;;4941472;28;20043;-80
2022/10/09 01:31:17;;;;;;;5.28;1.30;;;;;;;;;;4924309;28;20498;-82
2022/10/09 01:33:43;;;;;;;4.35;1.15;;;;;;;;;;4932289;28;20039;-80
2022/10/09 01:36:09;;;;;;;3.33;1.02;;;;;;;;;;4923612;28;20391;-81
2022/10/09 01:38:35;;;;;;;3.13;1.30;;;;;;;;;;4925977;28;20410;-81
2022/10/09 01:41:02;;;;;;;3.20;1.40;;;;;;;;;;4923703;28;20150;-82
2022/10/09 01:43:27;;;;;;;4.70;1.27;;;;;;;;;;4931745;28;20121;-81
2022/10/09 01:46:19;;;;;;;2.63;1.27;;;;;;;;;;4923016;28;20127;-80
2022/10/09 01:48:48;;;;;;;4.90;1.38;;;;;;;;;;4940650;28;20046;-81
2022/10/09 01:51:15;;;;;;;3.42;1.27;;;;;;;;;;4931891;28;20082;-81
2022/10/09 01:53:42;;;;;;;3.75;1.17;;;;;;;;;;4927263;28;20538;-81
2022/10/09 01:56:19;;;;;;;3.78;1.15;;;;;;;;;;4939485;28;20062;-81
2022/10/09 01:58:58;;;;;;;4.50;1.60;;;;;;;;;;4939192;28;20046;-81
2022/10/09 02:01:29;;;;;;;4.47;1.25;;;;;;;;;;4939751;28;20114;-81
2022/10/09 02:03:55;;;;;;;3.58;1.00;;;;;;;;;;4932575;28;20046;-80
2022/10/09 02:06:20;;;;;;;3.03;1.23;;;;;;;;;;4936216;28;20031;-80
2022/10/09 02:08:49;;;;;;;4.82;1.30;;;;;;;;;;4922300;28;20102;-79
2022/10/09 02:11:14;;;;;;;3.17;1.23;;;;;;;;;;4941633;28;20035;-80
2022/10/09 02:13:40;;;;;;;5.63;1.50;;;;;;;;;;4932056;28;20043;-80
2022/10/09 02:16:11;;;;;;;4.63;1.55;;;;;;;;;;4931286;28;20043;-81
2022/10/09 02:18:41;;;;;;;2.88;1.30;;;;;;;;;;4941981;28;20035;-81
2022/10/09 02:21:11;;;;;;;4.22;1.63;;;;;;;;;;4924226;28;20418;-80
2022/10/09 02:23:39;;;;;;;4.90;1.58;;;;;;;;;;4926176;28;20058;-81
2022/10/09 02:26:04;;;;;;;4.03;1.33;;;;;;;;;;4931620;28;20094;-80
2022/10/09 02:28:30;;;;;;;4.53;1.55;;;;;;;;;;4924122;28;20043;-81
2022/10/09 02:31:17;;;;;;;2.88;1.30;;;;;;;;;;4927213;28;20039;-80
2022/10/09 02:33:42;;;;;;;4.30;1.27;;;;;;;;;;4934194;28;20416;-80
2022/10/09 02:36:08;;;;;;;4.53;1.77;;;;;;;;;;4931013;28;20279;-80
2022/10/09 02:38:33;;;;;;;4.35;1.45;;;;;;;;;;4926587;28;20179;-80
2022/10/09 02:40:59;;;;;;;3.58;1.45;;;;;;;;;;4940019;28;20478;-80
2022/10/09 02:43:25;;;;;;;5.07;1.67;;;;;;;;;;4942213;28;20049;-81
2022/10/09 02:45:50;;;;;;;6.28;1.65;;;;;;;;;;4924740;28;20031;-80
2022/10/09 02:48:16;;;;;;;4.35;1.30;;;;;;;;;;4925786;28;20035;-80
2022/10/09 02:50:41;;;;;;;5.45;1.60;;;;;;;;;;4936456;28;20607;-80
2022/10/09 02:53:06;;;;;;;3.08;1.02;;;;;;;;;;4932033;28;20039;-79
2022/10/09 02:55:32;;;;;;;4.20;1.35;;;;;;;;;;4925791;28;20117;-81
2022/10/09 02:57:57;;;;;;;4.18;1.40;;;;;;;;;;4947259;28;20043;-80
2022/10/09 03:00:22;;;;;;;3.22;1.20;;;;;;;;;;4938713;28;20407;-81
2022/10/09 03:02:48;;;;;;;3.25;1.00;;;;;;;;;;4937428;28;20491;-81
2022/10/09 03:05:13;;;;;;;3.45;1.27;;;;;;;;;;4938653;28;20085;-81
2022/10/09 03:07:39;;;;;;;5.07;1.67;;;;;;;;;;4930776;28;20053;-81
2022/10/09 03:10:04;;;;;;;2.78;1.00;;;;;;;;;;4932478;28;20051;-81
2022/10/09 03:12:30;;;;;;;3.25;1.13;;;;;;;;;;4937476;28;20035;-81
2022/10/09 03:14:55;;;;;;;3.83;1.33;;;;;;;;;;4939169;28;20050;-81
2022/10/09 03:17:21;;;;;;;2.80;1.38;;;;;;;;;;4937949;28;20035;-81
2022/10/09 03:19:46;;;;;;;4.70;1.50;;;;;;;;;;4934493;28;20069;-82
2022/10/09 03:22:11;;;;;;;3.28;1.35;;;;;;;;;;4922438;28;20035;-83
2022/10/09 03:24:37;;;;;;;3.33;1.02;;;;;;;;;;4929415;28;20504;-82
2022/10/09 03:27:02;;;;;;;2.70;1.20;;;;;;;;;;4925156;28;20449;-81
2022/10/09 03:29:27;;;;;;;4.18;1.23;;;;;;;;;;4929709;28;20031;-81
2022/10/09 03:31:53;;;;;;;3.58;1.30;;;;;;;;;;4924347;28;20062;-81
2022/10/09 03:34:18;;;;;;;4.65;1.75;;;;;;;;;;4926969;28;20039;-80
2022/10/09 03:36:44;;;;;;;3.70;1.20;;;;;;;;;;4930001;28;20043;-81
2022/10/09 03:39:09;;;;;;;5.28;1.58;;;;;;;;;;4931589;28;20034;-82
2022/10/09 03:41:34;;;;;;;4.78;1.35;;;;;;;;;;4930675;28;20042;-81
2022/10/09 03:43:59;;;;;;;5.55;1.27;;;;;;;;;;4929458;28;20085;-81
2022/10/09 03:46:25;;;;;;;3.80;1.50;;;;;;;;;;4931671;28;20106;-81
2022/10/09 03:48:50;;;;;;;3.63;1.50;;;;;;;;;;4926135;28;20177;-81
2022/10/09 03:51:16;;;;;;;3.97;1.20;;;;;;;;;;4932155;28;22288;-81
2022/10/09 03:53:41;;;;;;;3.25;1.38;;;;;;;;;;4927325;28;20490;-81
2022/10/09 03:56:06;;;;;;;3.33;1.30;;;;;;;;;;4920375;28;20042;-80
2022/10/09 03:58:32;;;;;;;3.83;1.30;;;;;;;;;;4924222;28;20046;-81
2022/10/09 04:00:57;;;;;;;3.65;1.38;;;;;;;;;;4938189;28;20094;-82
2022/10/09 04:03:23;;;;;;;4.32;1.48;;;;;;;;;;4931942;28;20062;-81
2022/10/09 04:05:48;;;;;;;3.60;1.30;;;;;;;;;;4939270;28;20035;-81
2022/10/09 04:08:14;;;;;;;3.40;1.55;;;;;;;;;;4933780;28;20562;-82
2022/10/09 04:10:39;;;;;;;5.88;1.63;;;;;;;;;;4939704;28;20058;-81
2022/10/09 04:13:05;;;;;;;3.75;1.33;;;;;;;;;;4926950;28;20031;-81
2022/10/09 04:15:30;;;;;;;3.67;1.38;;;;;;;;;;4929243;28;20121;-81
2022/10/09 04:17:55;;;;;;;4.15;1.90;;;;;;;;;;4926057;28;20035;-83
2022/10/09 04:20:21;;;;;;;4.45;1.80;;;;;;;;;;4935392;28;20039;-81
2022/10/09 04:22:46;;;;;;;3.33;1.40;;;;;;;;;;4950407;28;20049;-81
2022/10/09 04:25:12;;;;;;;6.35;1.52;;;;;;;;;;4932944;28;20043;-82
2022/10/09 04:27:37;;;;;;;3.72;1.38;;;;;;;;;;4940572;28;20832;-81
2022/10/09 04:30:04;;;;;;;3.45;1.38;;;;;;;;;;4933449;28;20046;-81
2022/10/09 04:32:29;;;;;;;5.93;1.80;;;;;;;;;;4925987;28;20035;-81
2022/10/09 04:34:54;;;;;;;3.38;1.33;;;;;;;;;;4934719;28;20049;-81
2022/10/09 04:37:20;;;;;;;4.25;1.50;;;;;;;;;;4942237;28;20167;-81
2022/10/09 04:39:45;;;;;;;3.17;1.30;;;;;;;;;;4931417;28;20130;-81
2022/10/09 04:42:10;;;;;;;4.65;1.70;;;;;;;;;;4926287;28;20405;-81
2022/10/09 04:44:36;;;;;;;5.75;2.05;;;;;;;;;;4933599;28;20035;-81
2022/10/09 04:47:01;;;;;;;5.88;1.90;;;;;;;;;;4934260;28;20035;-82
2022/10/09 04:49:26;;;;;;;4.90;1.70;;;;;;;;;;4927076;28;20046;-81
2022/10/09 04:51:52;;;;;;;3.92;1.40;;;;;;;;;;4931411;28;20066;-81
2022/10/09 04:54:17;;;;;;;5.03;1.60;;;;;;;;;;4933509;28;20057;-82
2022/10/09 04:56:42;;;;;;;5.72;1.60;;;;;;;;;;4932905;28;20506;-81
2022/10/09 04:59:08;;;;;;;5.97;1.58;;;;;;;;;;4933217;28;20047;-82
2022/10/09 05:01:33;;;;;;;3.75;1.55;;;;;;;;;;4933412;28;20483;-81
2022/10/09 05:03:58;;;;;;;3.17;1.55;;;;;;;;;;4933485;28;20042;-81
2022/10/09 05:06:24;;;;;;;4.25;1.67;;;;;;;;;;4931411;28;20118;-81
2022/10/09 05:08:50;;;;;;;5.00;1.70;;;;;;;;;;4927805;28;20039;-81
2022/10/09 05:11:18;;;;;;;4.82;1.95;;;;;;;;;;4933480;28;20113;-82
2022/10/09 05:13:46;;;;;;;3.90;1.50;;;;;;;;;;4927510;28;20498;-81
2022/10/09 05:16:13;;;;;;;;;;;;;;;;;;4927586;28;20511;-80
2022/10/09 05:18:43;;;;;;;4.78;1.80;;;;;;;;;;4941263;28;19922;-81
2022/10/09 05:21:08;;;;;;;5.80;2.03;;;;;;;;;;4928451;28;20093;-80
2022/10/09 05:23:34;;;;;;;9.13;3.25;;;;;;;;;;4925862;28;20039;-80
2022/10/09 05:26:03;;;;;;;4.65;2.17;;;;;;;;;;4933483;28;20043;-80
2022/10/09 05:28:28;;;;;;;5.32;1.67;;;;;;;;;;4926141;28;20038;-80
2022/10/09 05:30:54;;;;;;;5.65;1.90;;;;;;;;;;4933424;28;20438;-80
2022/10/09 05:33:19;;;;;;;4.25;1.65;;;;;;;;;;4942674;28;20074;-80
2022/10/09 05:35:52;;;;;;;6.63;2.08;;;;;;;;;;4931722;28;20038;-82
2022/10/09 05:38:17;;;;;;;4.40;1.60;;;;;;;;;;4933391;28;21068;-80
2022/10/09 05:40:52;;;;;;;4.90;1.67;;;;;;;;;;4938314;28;20101;-80
2022/10/09 05:43:18;;;;;;;3.88;1.60;;;;;;;;;;4927763;28;20050;-81
2022/10/09 05:45:44;;;;;;;4.47;1.80;;;;;;;;;;4931682;28;20438;-81
2022/10/09 05:48:09;;;;;;;4.90;1.80;;;;;;;;;;4923079;28;20042;-80
2022/10/09 05:50:34;;;;;;;4.15;1.88;;;;;;;;;;4940303;28;20414;-80
2022/10/09 05:53:01;;;;;;;4.50;1.65;;;;;;;;;;4932177;28;20057;-80
2022/10/09 05:55:26;;;;;;;3.10;1.48;;;;;;;;;;4939730;28;20061;-81
2022/10/09 05:57:52;;;;;;;5.43;1.67;;;;;;;;;;4932245;28;20426;-80
2022/10/09 06:00:17;;;;;;;3.17;1.63;;;;;;;;;;4935942;28;20046;-80
2022/10/09 06:02:43;;;;;;;4.85;2.10;;;;;;;;;;4934093;28;20131;-87
2022/10/09 06:05:08;;;;;;;3.45;1.90;;;;;;;;;;4925697;29;20036;-86
2022/10/09 06:07:33;;;;;;;5.65;1.80;;;;;;;;;;4917085;29;20042;-87
2022/10/09 06:09:59;;;;;;;3.67;1.80;;;;;;;;;;4906177;29;20479;-86
2022/10/09 06:12:24;;;;;;;4.57;2.00;;;;;;;;;;4926727;29;20044;-86
2022/10/09 06:14:50;;;;;;;4.43;1.90;;;;;;;;;;4915511;29;20123;-87
2022/10/09 06:17:16;;;;;;;3.97;2.13;;;;;;;;;;4917740;29;20118;-86
2022/10/09 06:19:44;;;;;;;5.00;1.85;;;;;;;;;;4924691;29;20391;-86
2022/10/09 06:22:09;;;;;;;4.65;1.77;;;;;;;;;;4917189;29;20127;-85
2022/10/09 06:24:35;;;;;;;3.45;1.70;;;;;;;;;;4927404;29;20095;-85
2022/10/09 06:27:01;;;;;;;5.60;2.17;;;;;;;;;;4904592;29;20039;-86
2022/10/09 06:29:27;;;;;;;6.72;2.50;;;;;;;;;;4918773;29;20047;-87
2022/10/09 06:31:52;;;;;;;3.70;2.00;;;;;;;;;;4906515;29;20039;-85
2022/10/09 06:34:18;;;;;;;4.35;1.80;;;;;;;;;;4918034;29;20043;-85
2022/10/09 06:36:43;;;;;;;3.90;2.03;;;;;;;;;;4917869;29;20566;-86
2022/10/09 06:39:10;;;;;;;3.42;1.77;;;;;;;;;;4904658;29;20082;-86
2022/10/09 06:41:35;;;;;;;4.43;2.20;;;;;;;;;;4901480;29;20084;-85
2022/10/09 06:44:04;;;;;;;4.78;2.30;;;;;;;;;;4913667;29;20035;-87
2022/10/09 06:46:35;;;;;;;4.78;1.95;;;;;;;;;;4892505;29;20036;-87
2022/10/09 06:49:05;;;;;;;6.32;2.20;;;;;;;;;;4929385;29;20042;-87
2022/10/09 06:51:31;;;;;;;4.03;2.25;;;;;;;;;;4929118;29;20402;-88
2022/10/09 06:53:59;;;;;;;3.97;1.85;;;;;;;;;;4910432;29;20511;-85
2022/10/09 06:56:26;;;;;;;4.28;1.90;;;;;;;;;;4901145;29;20096;-86
2022/10/09 06:58:52;;;;;;;4.50;2.00;;;;;;;;;;4897146;29;20045;-87
2022/10/09 07:01:18;;;;;;;4.22;2.10;;;;;;;;;;4906755;29;20670;-86
2022/10/09 07:03:46;;;;;;;5.38;1.95;;;;;;;;;;4924298;29;20051;-86
2022/10/09 07:06:15;;;;;;;;;;;;;;;;;;4907813;29;20059;-86
2022/10/09 07:08:42;;;;;;;6.03;2.15;;;;;;;;;;4900493;29;19919;-86
2022/10/09 07:11:23;;;;;;;6.30;3.07;;;;;;;;;;4902382;29;20534;-85
2022/10/09 07:13:52;;;;;;;7.55;2.97;;;;;;;;;;4901935;29;20427;-87
2022/10/09 07:16:20;;;;;;;4.60;1.92;;;;;;;;;;4889168;29;20050;-86
2022/10/09 07:18:55;;;;;;;6.40;2.28;;;;;;;;;;4909230;28;20435;-86
2022/10/09 07:21:21;;;;;;;3.78;2.10;;;;;;;;;;4896703;29;20044;-86
2022/10/09 07:23:55;;;;;;;4.75;1.92;;;;;;;;;;4901537;29;20138;-86
2022/10/09 07:26:23;;;;;;;5.55;1.77;;;;;;;;;;4915101;29;20055;-86
2022/10/09 07:28:49;;;;;;;4.75;2.10;;;;;;;;;;4902945;29;21076;-85
2022/10/09 07:31:17;;;;;;;4.50;2.08;;;;;;;;;;4914347;29;20028;-87
2022/10/09 07:33:46;;;;;;;5.47;1.80;;;;;;;;;;4900456;29;20422;-87
2022/10/09 07:36:12;;;;;;;3.85;1.67;;;;;;;;;;4908672;29;20404;-87
2022/10/09 07:38:37;;;;;;;4.00;1.80;;;;;;;;;;4905481;29;20044;-88
2022/10/09 07:41:05;;;;;;;4.55;1.65;;;;;;;;;;4926291;29;20107;-87
2022/10/09 07:43:34;;;;;;;4.93;1.75;;;;;;;;;;4909518;28;20044;-89
2022/10/09 07:46:03;;;;;;;4.43;1.40;;;;;;;;;;4890790;29;20036;-89
2022/10/09 07:48:32;;;;;;;4.60;1.80;;;;;;;;;;4900382;29;20039;-89
2022/10/09 07:51:07;;;;;;;3.55;1.13;;;;;;;;;;4912174;29;20134;-90
2022/10/09 07:53:46;;;;;;;4.10;1.60;;;;;;;;;;4877850;29;20086;-89
2022/10/09 07:56:16;;;;;;;3.70;1.25;;;;;;;;;;4899515;29;20439;-87
2022/10/09 07:58:53;;;;;;;3.75;1.30;;;;;;;;;;4901598;29;20486;-88
2022/10/09 08:01:26;;;;;;;3.70;1.43;;;;;;;;;;4889342;28;20524;-87
2022/10/09 08:04:15;;;;;;;4.18;1.27;;;;;;;;;;4890699;28;20407;-87
2022/10/09 08:07:40;;;;;;;6.05;1.65;;;;;;;;;;4887562;28;20098;-88
2022/10/09 08:10:15;;;;;;;4.45;1.33;;;;;;;;;;4917701;28;20098;-86
2022/10/09 08:12:43;;;;;;;3.85;1.30;;;;;;;;;;4907055;28;20071;-86
2022/10/09 08:15:09;;;;;;;3.22;1.42;;;;;;;;;;4895500;29;20062;-87
2022/10/09 08:17:35;;;;;;;5.50;1.73;;;;;;;;;;4897965;28;20122;-87
2022/10/09 08:20:09;;;;;;;3.15;1.25;;;;;;;;;;4913506;28;20027;-87
2022/10/09 08:22:50;;;;;;;3.42;1.40;;;;;;;;;;4928498;28;20039;-86
2022/10/09 08:26:06;;;;;;;2.97;1.20;;;;;;;;;;4896790;28;20051;-87
2022/10/09 08:29:09;;;;;;;4.88;1.50;;;;;;;;;;4894793;28;20066;-86
2022/10/09 08:32:13;;;;;;;3.35;1.35;;;;;;;;;;4910447;28;20478;-85
2022/10/09 08:35:39;;;;;;;4.90;1.40;;;;;;;;;;4867896;29;20051;-86
2022/10/09 08:38:05;;;;;;;5.50;1.60;;;;;;;;;;4900038;28;20049;-86
2022/10/09 08:41:08;;;;;;;4.60;1.40;;;;;;;;;;4937571;28;20035;-87
2022/10/09 08:43:36;;;;;;;4.82;1.40;;;;;;;;;;4920292;28;20397;-86
2022/10/09 08:46:21;;;;;;;;;;;;;;;;;;4923702;28;20078;-88
2022/10/09 08:48:48;;;;;;;3.42;1.30;;;;;;;;;;4950178;28;19921;-86
2022/10/09 08:51:26;;;;;;;4.03;1.30;;;;;;;;;;4933793;28;20455;-85
2022/10/09 08:54:02;;;;;;;3.78;1.30;;;;;;;;;;4940027;28;20134;-86
2022/10/09 08:56:32;;;;;;;4.30;1.70;;;;;;;;;;4945574;28;20395;-86
2022/10/09 08:58:57;;;;;;;4.30;1.60;;;;;;;;;;4923549;29;20130;-84
2022/10/09 09:01:46;;;;;;;4.15;1.48;;;;;;;;;;4930036;29;20130;-84
2022/10/09 09:04:34;;;;;;;4.15;1.40;;;;;;;;;;4901455;28;20055;-85
2022/10/09 09:07:05;;;;;;;5.82;1.30;;;;;;;;;;4925984;28;20043;-86
2022/10/09 09:10:25;;;;;;;3.65;1.30;;;;;;;;;;4934120;28;20502;-84
2022/10/09 09:12:55;;;;;;;6.55;1.63;;;;;;;;;;4866483;29;20049;-84
2022/10/09 09:15:29;;;;;;;3.47;1.30;;;;;;;;;;4925587;28;20443;-87
2022/10/09 09:18:13;;;;;;;3.55;1.10;;;;;;;;;;4936889;28;20042;-87
2022/10/09 09:21:18;;;;;;;3.97;1.20;;;;;;;;;;4941881;28;20035;-86
2022/10/09 09:23:50;;;;;;;4.00;1.50;;;;;;;;;;4910527;28;20039;-84
2022/10/09 09:26:18;;;;;;;4.05;1.38;;;;;;;;;;4906172;28;20050;-85
2022/10/09 09:28:46;;;;;;;6.03;1.58;;;;;;;;;;4899563;28;20114;-85
2022/10/09 09:31:21;;;;;;;6.05;1.17;;;;;;;;;;4925030;28;20036;-85
2022/10/09 09:34:05;;;;;;;3.72;1.30;;;;;;;;;;4910822;28;20545;-85
2022/10/09 09:36:34;;;;;;;4.78;1.63;;;;;;;;;;4944118;28;20036;-84
2022/10/09 09:39:00;;;;;;;5.28;1.42;;;;;;;;;;4921948;28;20433;-86
2022/10/09 09:41:28;;;;;;;3.47;0.98;;;;;;;;;;4921878;29;20049;-84
2022/10/09 09:43:53;;;;;;;4.20;1.20;;;;;;;;;;4888948;29;20495;-85
2022/10/09 09:46:28;;;;;;;5.28;1.10;;;;;;;;;;4933683;28;20043;-84
2022/10/09 09:48:54;;;;;;;3.50;1.35;;;;;;;;;;4922841;29;20601;-84
2022/10/09 09:51:30;;;;;;;3.17;0.98;;;;;;;;;;4940665;28;20513;-84
2022/10/09 09:54:02;;;;;;;6.10;1.60;;;;;;;;;;4921143;29;20054;-85
2022/10/09 09:56:39;;;;;;;5.82;1.15;;;;;;;;;;4935377;28;20044;-85
2022/10/09 09:59:05;;;;;;;6.70;2.08;;;;;;;;;;4936853;28;20036;-85
2022/10/09 10:01:34;;;;;;;4.22;1.45;;;;;;;;;;4926040;28;20522;-89
2022/10/09 10:04:20;;;;;;;3.22;0.95;;;;;;;;;;4919868;28;20413;-86
2022/10/09 10:06:45;;;;;;;3.40;0.90;;;;;;;;;;4941113;28;20543;-85
2022/10/09 10:09:18;;;;;;;6.78;1.67;;;;;;;;;;4922324;28;20040;-85
2022/10/09 10:11:59;;;;;;;2.58;0.90;;;;;;;;;;4912384;28;20404;-85
2022/10/09 10:14:25;;;;;;;6.05;1.08;;;;;;;;;;4925288;28;20510;-85
2022/10/09 10:16:52;;;;;;;3.55;0.90;;;;;;;;;;4903161;28;20043;-86
2022/10/09 10:19:30;;;;;;;4.63;1.00;;;;;;;;;;4933192;28;20039;-85
2022/10/09 10:21:59;;;;;;;2.92;0.75;;;;;;;;;;4916128;28;20527;-87
2022/10/09 10:24:40;;;;;;;4.53;0.90;;;;;;;;;;4934998;28;20036;-87
2022/10/09 10:27:16;;;;;;;4.10;1.13;;;;;;;;;;4927463;28;20036;-86
2022/10/09 10:29:43;;;;;;;5.30;1.00;;;;;;;;;;4920167;28;20035;-86
2022/10/09 10:32:21;;;;;;;3.38;1.13;;;;;;;;;;4928242;28;20048;-86
2022/10/09 10:34:51;;;;;;;3.47;0.82;;;;;;;;;;4922717;28;20043;-86
2022/10/09 10:37:28;;;;;;;2.58;0.77;;;;;;;;;;4922356;28;20398;-85
2022/10/09 10:40:13;;;;;;;3.97;0.95;;;;;;;;;;4928113;29;20576;-86
2022/10/09 10:43:09;;;;;;;4.80;0.95;;;;;;;;;;4907881;28;20035;-86
2022/10/09 10:45:49;;;;;;;2.60;0.60;;;;;;;;;;4933724;28;20037;-87
2022/10/09 10:48:28;;;;;;;3.70;1.17;;;;;;;;;;4943958;28;20086;-87
2022/10/09 10:51:15;;;;;;;4.07;0.88;;;;;;;;;;4872653;29;20043;-87
2022/10/09 10:54:14;;;;;;;3.25;0.85;;;;;;;;;;4903466;28;20094;-86
2022/10/09 10:56:49;;;;;;;2.58;0.70;;;;;;;;;;4924733;28;20042;-85
2022/10/09 10:59:23;;;;;;;5.10;1.00;;;;;;;;;;4917851;28;20125;-84
2022/10/09 11:02:27;;;;;;;3.10;0.63;;;;;;;;;;4878948;28;20050;-85
2022/10/09 11:05:28;;;;;;;3.28;0.57;;;;;;;;;;4925275;28;20047;-83
2022/10/09 11:08:05;;;;;;;2.55;0.50;;;;;;;;;;4930963;28;20050;-85
2022/10/09 11:10:39;;;;;;;5.20;0.85;;;;;;;;;;4939948;28;20046;-84
2022/10/09 11:13:31;;;;;;;3.28;0.60;;;;;;;;;;4925294;28;20051;-84
2022/10/09 11:16:11;;;;;;;4.40;0.82;;;;;;;;;;4926004;28;20042;-84
2022/10/09 11:18:37;;;;;;;3.13;0.80;;;;;;;;;;4925005;28;20118;-83
2022/10/09 11:21:32;;;;;;;3.78;0.70;;;;;;;;;;4950664;28;20122;-86
2022/10/09 11:24:06;;;;;;;2.85;0.68;;;;;;;;;;4911917;29;20478;-84
2022/10/09 11:26:51;;;;;;;2.00;0.82;;;;;;;;;;4955613;28;20419;-84
2022/10/09 11:29:26;;;;;;;3.05;0.68;;;;;;;;;;4941144;28;20036;-85
2022/10/09 11:32:03;;;;;;;2.63;0.52;;;;;;;;;;4923794;28;20035;-84
2022/10/09 11:34:36;;;;;;;4.47;0.82;;;;;;;;;;4933947;28;20114;-84
2022/10/09 11:37:06;;;;;;;3.42;0.70;;;;;;;;;;4926216;28;20032;-86
2022/10/09 11:39:31;;;;;;;2.90;0.52;;;;;;;;;;4928505;28;20487;-84
2022/10/09 11:41:58;;;;;;;3.08;0.90;;;;;;;;;;4927692;29;20038;-84
2022/10/09 11:44:31;;;;;;;2.95;0.70;;;;;;;;;;4924404;29;20040;-85
2022/10/09 11:47:21;;;;;;;2.85;0.55;;;;;;;;;;4951387;28;20047;-85
2022/10/09 11:50:17;;;;;;;2.65;0.68;;;;;;;;;;4940472;28;20463;-84
2022/10/09 11:53:00;;;;;;;2.90;0.52;;;;;;;;;;4944273;28;20157;-86
2022/10/09 11:55:29;;;;;;;2.75;0.57;;;;;;;;;;4964241;28;20063;-87
2022/10/09 11:57:54;;;;;;;2.58;0.60;;;;;;;;;;4944344;29;20043;-79
2022/10/09 12:00:34;;;;;;;2.13;0.45;;;;;;;;;;4942674;28;20395;-79
2022/10/09 12:03:04;;;;;;;4.15;0.60;;;;;;;;;;4922454;28;20039;-80
2022/10/09 12:05:44;;;;;;;3.63;0.70;;;;;;;;;;4926759;28;20195;-80
2022/10/09 12:08:15;;;;;;;4.57;0.65;;;;;;;;;;4942002;28;20039;-79
2022/10/09 12:10:45;;;;;;;4.50;0.93;;;;;;;;;;4926449;28;20086;-78
2022/10/09 12:13:29;;;;;;;3.28;0.55;;;;;;;;;;4923457;28;20044;-80
2022/10/09 12:15:56;;;;;;;2.05;0.40;;;;;;;;;;4940599;28;20173;-81
2022/10/09 12:18:24;;;;;;;3.10;0.80;;;;;;;;;;4928819;28;20032;-81
2022/10/09 12:20:50;;;;;;;3.08;0.60;;;;;;;;;;4941766;28;20051;-81
2022/10/09 12:23:20;;;;;;;3.78;0.77;;;;;;;;;;4926242;28;20391;-82
2022/10/09 12:25:46;;;;;;;2.40;0.50;;;;;;;;;;4927458;28;20043;-80
2022/10/09 12:28:26;;;;;;;3.17;0.52;;;;;;;;;;4940279;28;20506;-79
2022/10/09 12:30:52;;;;;;;2.97;0.60;;;;;;;;;;4945354;28;20402;-79
2022/10/09 12:33:25;;;;;;;2.35;0.80;;;;;;;;;;4922435;28;20035;-81
2022/10/09 12:36:03;;;;;;;2.92;0.75;;;;;;;;;;4930618;28;20043;-80
2022/10/09 12:38:32;;;;;;;2.65;0.50;;;;;;;;;;4940107;28;20134;-78
2022/10/09 12:41:01;;;;;;;4.13;1.25;;;;;;;;;;4935542;28;20137;-81
2022/10/09 12:43:26;;;;;;;2.35;0.60;;;;;;;;;;4937802;28;20066;-80
2022/10/09 12:45:52;;;;;;;3.22;0.68;;;;;;;;;;4936436;28;20122;-80
2022/10/09 12:48:21;;;;;;;5.22;0.80;;;;;;;;;;4922512;28;20048;-81
2022/10/09 12:50:47;;;;;;;2.92;0.60;;;;;;;;;;4920397;28;20130;-81
2022/10/09 12:53:19;;;;;;;2.33;0.50;;;;;;;;;;4929820;28;20517;-79
2022/10/09 12:55:46;;;;;;;3.80;1.13;;;;;;;;;;4923889;28;20039;-81
2022/10/09 12:58:24;;;;;;;2.78;0.60;;;;;;;;;;4922675;28;20098;-81
2022/10/09 13:00:52;;;;;;;2.78;0.68;;;;;;;;;;4933191;28;20614;-80
2022/10/09 13:03:35;;;;;;;2.80;0.60;;;;;;;;;;4925561;28;20546;-80
2022/10/09 13:06:02;;;;;;;2.58;0.52;;;;;;;;;;4933203;28;20041;-80
2022/10/09 13:08:34;;;;;;;1.93;0.47;;;;;;;;;;4939526;28;20079;-80
2022/10/09 13:11:11;;;;;;;3.53;0.60;;;;;;;;;;4932276;28;20118;-81
2022/10/09 13:13:37;;;;;;;3.85;0.50;;;;;;;;;;4954306;28;20039;-80
2022/10/09 13:16:09;;;;;;;2.13;0.50;;;;;;;;;;4947053;28;20089;-80
2022/10/09 13:18:36;;;;;;;3.42;0.75;;;;;;;;;;4927828;28;20077;-80
2022/10/09 13:21:21;;;;;;;3.85;0.70;;;;;;;;;;4933553;28;20509;-79
2022/10/09 13:23:47;;;;;;;2.65;0.70;;;;;;;;;;4955260;28;20882;-80
2022/10/09 13:26:27;;;;;;;4.72;0.60;;;;;;;;;;4937433;28;20110;-80
2022/10/09 13:28:53;;;;;;;6.07;0.82;;;;;;;;;;4939215;28;20039;-79
2022/10/09 13:31:19;;;;;;;2.65;0.50;;;;;;;;;;4925090;28;20215;-79
2022/10/09 13:33:44;;;;;;;6.53;1.15;;;;;;;;;;4949021;28;20126;-79
2022/10/09 13:36:13;;;;;;;3.80;0.90;;;;;;;;;;4932797;28;20554;-79
2022/10/09 13:38:39;;;;;;;2.22;0.55;;;;;;;;;;4930586;28;20035;-78
2022/10/09 13:41:04;;;;;;;3.58;0.68;;;;;;;;;;4938567;28;20042;-78
2022/10/09 13:43:30;;;;;;;2.47;0.55;;;;;;;;;;4926032;28;20049;-79
2022/10/09 13:45:56;;;;;;;2.95;0.70;;;;;;;;;;4923453;28;20036;-78
2022/10/09 13:48:21;;;;;;;2.63;0.50;;;;;;;;;;4939635;28;20038;-78
2022/10/09 13:50:46;;;;;;;3.80;0.85;;;;;;;;;;4932698;28;20039;-79
2022/10/09 13:53:12;;;;;;;3.13;0.77;;;;;;;;;;4933484;28;20039;-77
2022/10/09 13:55:37;;;;;;;4.10;0.88;;;;;;;;;;4937421;28;20042;-78
2022/10/09 13:58:03;;;;;;;1.42;0.40;;;;;;;;;;4939513;28;20035;-80
2022/10/09 14:00:28;;;;;;;2.53;0.50;;;;;;;;;;4921210;28;20035;-78
2022/10/09 14:02:54;;;;;;;3.00;0.85;;;;;;;;;;4927921;28;20422;-78
2022/10/09 14:05:20;;;;;;;3.00;0.70;;;;;;;;;;4940369;28;20047;-78
2022/10/09 14:07:46;;;;;;;3.22;0.60;;;;;;;;;;4938516;28;20074;-78
2022/10/09 14:10:11;;;;;;;1.58;0.45;;;;;;;;;;4922176;28;20066;-77
2022/10/09 14:12:36;;;;;;;3.97;0.60;;;;;;;;;;4931969;28;20066;-79
2022/10/09 14:15:02;;;;;;;3.42;0.50;;;;;;;;;;4940922;28;20042;-79
2022/10/09 14:17:27;;;;;;;3.17;0.75;;;;;;;;;;4924202;28;20441;-80
2022/10/09 14:19:52;;;;;;;2.08;0.30;;;;;;;;;;4942316;28;20613;-79
2022/10/09 14:22:18;;;;;;;2.60;0.65;;;;;;;;;;4923907;28;20070;-78
2022/10/09 14:24:43;;;;;;;3.22;0.70;;;;;;;;;;4924631;28;20481;-79
2022/10/09 14:27:09;;;;;;;2.83;0.65;;;;;;;;;;4926080;28;20149;-79
2022/10/09 14:29:36;;;;;;;1.98;0.68;;;;;;;;;;4932016;28;20065;-79
2022/10/09 14:32:01;;;;;;;3.27;0.90;;;;;;;;;;4932147;28;20061;-79
2022/10/09 14:34:27;;;;;;;4.07;1.15;;;;;;;;;;4940315;28;20275;-80
2022/10/09 14:36:52;;;;;;;3.92;0.70;;;;;;;;;;4924854;28;20997;-78
2022/10/09 14:39:17;;;;;;;2.40;0.55;;;;;;;;;;4938165;28;20541;-79
2022/10/09 14:41:43;;;;;;;2.50;0.70;;;;;;;;;;4930567;28;20039;-79
2022/10/09 14:44:09;;;;;;;5.00;0.88;;;;;;;;;;4931117;28;20031;-78
2022/10/09 14:46:36;;;;;;;4.13;0.70;;;;;;;;;;4936996;28;20470;-78
2022/10/09 14:49:06;;;;;;;3.07;0.70;;;;;;;;;;4938789;28;20027;-79
2022/10/09 14:51:32;;;;;;;2.40;0.70;;;;;;;;;;4927711;28;20031;-79
2022/10/09 14:53:57;;;;;;;2.63;0.73;;;;;;;;;;4931766;28;20055;-79
2022/10/09 14:56:23;;;;;;;4.13;0.70;;;;;;;;;;4939285;28;20054;-80
2022/10/09 14:58:48;;;;;;;3.17;0.70;;;;;;;;;;4938307;28;20105;-78
2022/10/09 15:01:19;;;;;;;2.97;0.55;;;;;;;;;;4938534;28;20039;-79
2022/10/09 15:03:44;;;;;;;3.63;0.93;;;;;;;;;;4926378;28;20501;-77